sensor_id;sensor_type;location;lat;lon;timestamp;pressure;altitude;pressure_sealevel;temperature;humidity
22872;BME280;11603;44.910;8.630;2023-04-22T00:02:08;100573.78;;;14.48;100.00
22872;BME280;11603;44.910;8.630;2023-04-22T00:04:34;100579.78;;;14.52;100.00
22872;BME280;11603;44.910;8.630;2023-04-22T00:07:00;100578.44;;;14.57;100.00
22872;BME280;11603;44.910;8.630;2023-04-22T00:09:25;100581.50;;;14.53;100.00
22872;BME280;11603;44.910;8.630;2023-04-22T00:11:51;100577.97;;;14.52;100.00
22872;BME280;11603;44.910;8.630;2023-04-22T00:14:17;100586.28;;;14.49;100.00
22872;BME280;11603;44.910;8.630;2023-04-22T00:16:43;100581.38;;;14.43;100.00
22872;BME280;11603;44.910;8.630;2023-04-22T00:19:08;100567.63;;;14.35;100.00
22872;BME280;11603;44.910;8.630;2023-04-22T00:21:34;100571.84;;;14.39;100.00
22872;BME280;11603;44.910;8.630;2023-04-22T00:23:59;100568.47;;;14.35;100.00
22872;BME280;11603;44.910;8.630;2023-04-22T00:26:25;100572.81;;;14.38;100.00
22872;BME280;11603;44.910;8.630;2023-04-22T00:28:50;100568.09;;;14.29;100.00
22872;BME280;11603;44.910;8.630;2023-04-22T00:31:16;100568.84;;;14.31;100.00
22872;BME280;11603;44.910;8.630;2023-04-22T00:33:41;100566.75;;;14.34;100.00
22872;BME280;11603;44.910;8.630;2023-04-22T00:36:07;100562.66;;;14.41;100.00
22872;BME280;11603;44.910;8.630;2023-04-22T00:38:32;100562.28;;;14.46;100.00
22872;BME280;11603;44.910;8.630;2023-04-22T00:40:58;100566.75;;;14.34;100.00
22872;BME280;11603;44.910;8.630;2023-04-22T00:43:24;100565.53;;;14.27;100.00
22872;BME280;11603;44.910;8.630;2023-04-22T00:45:49;100555.84;;;14.25;100.00
22872;BME280;11603;44.910;8.630;2023-04-22T00:48:15;100557.47;;;14.27;100.00
22872;BME280;11603;44.910;8.630;2023-04-22T00:50:41;100556.50;;;14.28;100.00
22872;BME280;11603;44.910;8.630;2023-04-22T00:53:06;100559.16;;;14.17;100.00
22872;BME280;11603;44.910;8.630;2023-04-22T00:55:32;100560.88;;;14.18;100.00
22872;BME280;11603;44.910;8.630;2023-04-22T00:58:01;100561.72;;;14.19;100.00
22872;BME280;11603;44.910;8.630;2023-04-22T01:00:27;100561.84;;;14.17;100.00
22872;BME280;11603;44.910;8.630;2023-04-22T01:02:56;100559.16;;;14.17;100.00
22872;BME280;11603;44.910;8.630;2023-04-22T01:05:23;100550.72;;;14.22;100.00
22872;BME280;11603;44.910;8.630;2023-04-22T01:07:49;100555.50;;;14.18;100.00
22872;BME280;11603;44.910;8.630;2023-04-22T01:10:15;100549.38;;;14.16;100.00
22872;BME280;11603;44.910;8.630;2023-04-22T01:12:43;100544.72;;;14.07;100.00
22872;BME280;11603;44.910;8.630;2023-04-22T01:15:09;100538.69;;;14.04;100.00
22872;BME280;11603;44.910;8.630;2023-04-22T01:17:36;100543.47;;;14.00;100.00
22872;BME280;11603;44.910;8.630;2023-04-22T01:20:02;100535.22;;;13.79;100.00
22872;BME280;11603;44.910;8.630;2023-04-22T01:22:35;100541.50;;;13.67;100.00
22872;BME280;11603;44.910;8.630;2023-04-22T01:25:02;100536.88;;;13.69;100.00
22872;BME280;11603;44.910;8.630;2023-04-22T01:27:29;100534.91;;;13.71;100.00
22872;BME280;11603;44.910;8.630;2023-04-22T01:29:55;100530.75;;;13.67;100.00
22872;BME280;11603;44.910;8.630;2023-04-22T01:32:20;100536.47;;;13.63;100.00
22872;BME280;11603;44.910;8.630;2023-04-22T01:34:46;100538.09;;;13.65;100.00
22872;BME280;11603;44.910;8.630;2023-04-22T01:37:11;100541.66;;;13.66;100.00
22872;BME280;11603;44.910;8.630;2023-04-22T01:39:38;100544.53;;;13.63;100.00
22872;BME280;11603;44.910;8.630;2023-04-22T01:42:03;100547.06;;;13.53;100.00
22872;BME280;11603;44.910;8.630;2023-04-22T01:44:29;100550.69;;;13.65;100.00
22872;BME280;11603;44.910;8.630;2023-04-22T01:46:54;100543.56;;;13.64;100.00
22872;BME280;11603;44.910;8.630;2023-04-22T01:49:20;100545.00;;;13.56;100.00
22872;BME280;11603;44.910;8.630;2023-04-22T01:51:45;100541.25;;;13.59;100.00
22872;BME280;11603;44.910;8.630;2023-04-22T01:54:11;100546.88;;;13.67;100.00
22872;BME280;11603;44.910;8.630;2023-04-22T01:56:37;100544.50;;;13.75;100.00
22872;BME280;11603;44.910;8.630;2023-04-22T01:59:05;100547.53;;;13.82;100.00
22872;BME280;11603;44.910;8.630;2023-04-22T02:01:34;100550.88;;;13.85;100.00
22872;BME280;11603;44.910;8.630;2023-04-22T02:03:59;100550.88;;;13.85;100.00
22872;BME280;11603;44.910;8.630;2023-04-22T02:06:25;100552.69;;;13.85;100.00
22872;BME280;11603;44.910;8.630;2023-04-22T02:08:51;100545.00;;;13.80;100.00
22872;BME280;11603;44.910;8.630;2023-04-22T02:11:17;100544.03;;;13.81;100.00
22872;BME280;11603;44.910;8.630;2023-04-22T02:13:42;100548.66;;;13.79;100.00
22872;BME280;11603;44.910;8.630;2023-04-22T02:16:08;100551.59;;;13.76;100.00
22872;BME280;11603;44.910;8.630;2023-04-22T02:18:33;100542.53;;;13.77;100.00
22872;BME280;11603;44.910;8.630;2023-04-22T02:20:59;100543.53;;;13.76;100.00
22872;BME280;11603;44.910;8.630;2023-04-22T02:23:25;100549.72;;;13.77;100.00
22872;BME280;11603;44.910;8.630;2023-04-22T02:25:53;100550.59;;;13.77;100.00
22872;BME280;11603;44.910;8.630;2023-04-22T02:28:18;100546.31;;;13.75;100.00
22872;BME280;11603;44.910;8.630;2023-04-22T02:30:44;100544.25;;;13.78;100.00
22872;BME280;11603;44.910;8.630;2023-04-22T02:33:10;100550.72;;;13.76;100.00
22872;BME280;11603;44.910;8.630;2023-04-22T02:35:36;100554.72;;;13.70;100.00
22872;BME280;11603;44.910;8.630;2023-04-22T02:38:02;100552.97;;;13.58;100.00
22872;BME280;11603;44.910;8.630;2023-04-22T02:40:27;100548.34;;;13.60;100.00
22872;BME280;11603;44.910;8.630;2023-04-22T02:42:52;100548.97;;;13.64;100.00
22872;BME280;11603;44.910;8.630;2023-04-22T02:45:20;100554.94;;;13.67;100.00
22872;BME280;11603;44.910;8.630;2023-04-22T02:47:45;100548.16;;;13.50;100.00
22872;BME280;11603;44.910;8.630;2023-04-22T02:50:11;100554.88;;;13.45;100.00
22872;BME280;11603;44.910;8.630;2023-04-22T02:52:37;100551.53;;;13.41;100.00
22872;BME280;11603;44.910;8.630;2023-04-22T02:55:02;100550.16;;;13.36;100.00
22872;BME280;11603;44.910;8.630;2023-04-22T02:57:28;100554.31;;;13.40;100.00
22872;BME280;11603;44.910;8.630;2023-04-22T02:59:54;100549.50;;;13.45;100.00
22872;BME280;11603;44.910;8.630;2023-04-22T03:02:22;100550.72;;;13.52;100.00
22872;BME280;11603;44.910;8.630;2023-04-22T03:05:17;100549.41;;;13.57;100.00
22872;BME280;11603;44.910;8.630;2023-04-22T03:07:43;100545.41;;;13.63;100.00
22872;BME280;11603;44.910;8.630;2023-04-22T03:10:10;100541.63;;;13.42;100.00
22872;BME280;11603;44.910;8.630;2023-04-22T03:12:35;100539.66;;;13.33;100.00
22872;BME280;11603;44.910;8.630;2023-04-22T03:15:01;100552.97;;;13.34;100.00
22872;BME280;11603;44.910;8.630;2023-04-22T03:17:29;100542.09;;;13.36;100.00
22872;BME280;11603;44.910;8.630;2023-04-22T03:19:56;100550.91;;;13.38;100.00
22872;BME280;11603;44.910;8.630;2023-04-22T03:22:22;100538.09;;;13.41;100.00
22872;BME280;11603;44.910;8.630;2023-04-22T03:24:49;100547.25;;;13.39;100.00
22872;BME280;11603;44.910;8.630;2023-04-22T03:27:15;100540.78;;;13.41;100.00
22872;BME280;11603;44.910;8.630;2023-04-22T03:29:41;100543.97;;;13.46;100.00
22872;BME280;11603;44.910;8.630;2023-04-22T03:32:06;100544.72;;;13.48;100.00
22872;BME280;11603;44.910;8.630;2023-04-22T03:34:33;100539.56;;;13.45;100.00
22872;BME280;11603;44.910;8.630;2023-04-22T03:36:59;100541.13;;;13.37;100.00
22872;BME280;11603;44.910;8.630;2023-04-22T03:39:25;100543.91;;;13.35;100.00
22872;BME280;11603;44.910;8.630;2023-04-22T03:41:50;100546.09;;;13.30;100.00
22872;BME280;11603;44.910;8.630;2023-04-22T03:44:16;100550.94;;;13.25;100.00
22872;BME280;11603;44.910;8.630;2023-04-22T03:46:45;100548.16;;;13.27;100.00
22872;BME280;11603;44.910;8.630;2023-04-22T03:49:17;100547.28;;;13.26;100.00
22872;BME280;11603;44.910;8.630;2023-04-22T03:51:43;100549.03;;;13.27;100.00
22872;BME280;11603;44.910;8.630;2023-04-22T03:54:12;100546.22;;;13.29;100.00
22872;BME280;11603;44.910;8.630;2023-04-22T03:56:45;100545.47;;;13.27;100.00
22872;BME280;11603;44.910;8.630;2023-04-22T03:59:10;100545.47;;;13.27;100.00
22872;BME280;11603;44.910;8.630;2023-04-22T04:01:36;100544.84;;;13.23;100.00
22872;BME280;11603;44.910;8.630;2023-04-22T04:04:05;100549.91;;;13.15;100.00
22872;BME280;11603;44.910;8.630;2023-04-22T04:06:37;100555.41;;;13.13;100.00
22872;BME280;11603;44.910;8.630;2023-04-22T04:09:03;100537.75;;;13.09;100.00
22872;BME280;11603;44.910;8.630;2023-04-22T04:11:30;100554.84;;;13.08;100.00
22872;BME280;11603;44.910;8.630;2023-04-22T04:13:56;100545.81;;;13.09;100.00
22872;BME280;11603;44.910;8.630;2023-04-22T04:16:38;100554.00;;;13.08;100.00
22872;BME280;11603;44.910;8.630;2023-04-22T04:19:10;100556.28;;;13.01;100.00
22872;BME280;11603;44.910;8.630;2023-04-22T04:21:36;100552.81;;;12.99;100.00
22872;BME280;11603;44.910;8.630;2023-04-22T04:24:05;100555.50;;;12.99;100.00
22872;BME280;11603;44.910;8.630;2023-04-22T04:26:33;100548.31;;;13.00;100.00
22872;BME280;11603;44.910;8.630;2023-04-22T04:29:07;100550.38;;;12.96;100.00
22872;BME280;11603;44.910;8.630;2023-04-22T04:31:35;100550.19;;;12.87;100.00
22872;BME280;11603;44.910;8.630;2023-04-22T04:34:01;100550.06;;;12.88;100.00
22872;BME280;11603;44.910;8.630;2023-04-22T04:36:27;100551.25;;;12.84;100.00
22872;BME280;11603;44.910;8.630;2023-04-22T04:38:57;100555.13;;;12.80;100.00
22872;BME280;11603;44.910;8.630;2023-04-22T04:41:24;100558.09;;;12.88;100.00
22872;BME280;11603;44.910;8.630;2023-04-22T04:43:53;100560.94;;;12.87;100.00
22872;BME280;11603;44.910;8.630;2023-04-22T04:46:27;100567.94;;;12.77;100.00
22872;BME280;11603;44.910;8.630;2023-04-22T04:48:55;100567.94;;;12.64;100.00
22872;BME280;11603;44.910;8.630;2023-04-22T04:51:21;100562.66;;;12.75;100.00
22872;BME280;11603;44.910;8.630;2023-04-22T04:53:51;100570.38;;;12.80;100.00
22872;BME280;11603;44.910;8.630;2023-04-22T04:56:17;100570.91;;;12.72;100.00
22872;BME280;11603;44.910;8.630;2023-04-22T04:58:43;100569.41;;;12.68;100.00
22872;BME280;11603;44.910;8.630;2023-04-22T05:01:15;100569.00;;;12.61;100.00
22872;BME280;11603;44.910;8.630;2023-04-22T05:03:42;100563.09;;;12.69;100.00
22872;BME280;11603;44.910;8.630;2023-04-22T05:06:07;100563.38;;;12.77;100.00
22872;BME280;11603;44.910;8.630;2023-04-22T05:08:37;100568.75;;;12.90;100.00
22872;BME280;11603;44.910;8.630;2023-04-22T05:11:07;100573.56;;;12.97;100.00
22872;BME280;11603;44.910;8.630;2023-04-22T05:13:32;100572.81;;;12.95;100.00
22872;BME280;11603;44.910;8.630;2023-04-22T05:15:58;100574.13;;;12.90;100.00
22872;BME280;11603;44.910;8.630;2023-04-22T05:18:24;100578.53;;;12.91;100.00
22872;BME280;11603;44.910;8.630;2023-04-22T05:20:51;100585.56;;;13.04;100.00
22872;BME280;11603;44.910;8.630;2023-04-22T05:23:19;100581.69;;;13.08;100.00
22872;BME280;11603;44.910;8.630;2023-04-22T05:25:45;100581.69;;;13.08;100.00
22872;BME280;11603;44.910;8.630;2023-04-22T05:28:13;100583.97;;;13.14;100.00
22872;BME280;11603;44.910;8.630;2023-04-22T05:30:49;100588.22;;;13.30;100.00
22872;BME280;11603;44.910;8.630;2023-04-22T05:33:15;100590.25;;;13.39;100.00
22872;BME280;11603;44.910;8.630;2023-04-22T05:35:41;100586.00;;;13.47;100.00
22872;BME280;11603;44.910;8.630;2023-04-22T05:38:08;100589.97;;;13.54;100.00
22872;BME280;11603;44.910;8.630;2023-04-22T05:40:36;100591.56;;;13.57;100.00
22872;BME280;11603;44.910;8.630;2023-04-22T05:43:03;100591.91;;;13.52;100.00
22872;BME280;11603;44.910;8.630;2023-04-22T05:45:29;100592.06;;;13.38;100.00
22872;BME280;11603;44.910;8.630;2023-04-22T05:47:56;100589.78;;;13.45;100.00
22872;BME280;11603;44.910;8.630;2023-04-22T05:50:23;100597.88;;;13.32;100.00
22872;BME280;11603;44.910;8.630;2023-04-22T05:52:55;100593.31;;;13.22;100.00
22872;BME280;11603;44.910;8.630;2023-04-22T05:55:21;100596.06;;;13.33;100.00
22872;BME280;11603;44.910;8.630;2023-04-22T05:57:46;100585.59;;;13.41;100.00
22872;BME280;11603;44.910;8.630;2023-04-22T06:00:35;100597.03;;;13.32;100.00
22872;BME280;11603;44.910;8.630;2023-04-22T06:03:15;100592.09;;;13.26;100.00
22872;BME280;11603;44.910;8.630;2023-04-22T06:05:40;100595.75;;;13.25;100.00
22872;BME280;11603;44.910;8.630;2023-04-22T06:08:07;100594.38;;;13.19;100.00
22872;BME280;11603;44.910;8.630;2023-04-22T06:10:34;100599.47;;;13.35;100.00
22872;BME280;11603;44.910;8.630;2023-04-22T06:12:59;100596.84;;;13.46;100.00
22872;BME280;11603;44.910;8.630;2023-04-22T06:15:25;100606.81;;;13.33;100.00
22872;BME280;11603;44.910;8.630;2023-04-22T06:17:51;100606.38;;;13.39;100.00
22872;BME280;11603;44.910;8.630;2023-04-22T06:20:16;100609.16;;;13.37;100.00
22872;BME280;11603;44.910;8.630;2023-04-22T06:22:42;100599.97;;;13.52;100.00
22872;BME280;11603;44.910;8.630;2023-04-22T06:25:08;100603.34;;;13.67;100.00
22872;BME280;11603;44.910;8.630;2023-04-22T06:27:33;100613.56;;;13.62;100.00
22872;BME280;11603;44.910;8.630;2023-04-22T06:30:00;100617.97;;;13.63;100.00
22872;BME280;11603;44.910;8.630;2023-04-22T06:32:25;100616.78;;;13.67;100.00
22872;BME280;11603;44.910;8.630;2023-04-22T06:34:51;100621.59;;;13.75;100.00
22872;BME280;11603;44.910;8.630;2023-04-22T06:37:17;100622.63;;;13.85;100.00
22872;BME280;11603;44.910;8.630;2023-04-22T06:39:44;100630.94;;;13.93;100.00
22872;BME280;11603;44.910;8.630;2023-04-22T06:42:28;100640.44;;;13.62;100.00
22872;BME280;11603;44.910;8.630;2023-04-22T06:45:12;100644.50;;;13.68;100.00
22872;BME280;11603;44.910;8.630;2023-04-22T06:47:58;100647.16;;;13.80;100.00
22872;BME280;11603;44.910;8.630;2023-04-22T06:50:33;100642.88;;;14.02;100.00
22872;BME280;11603;44.910;8.630;2023-04-22T06:52:58;100643.47;;;14.05;100.00
22872;BME280;11603;44.910;8.630;2023-04-22T06:55:24;100644.22;;;14.07;100.00
22872;BME280;11603;44.910;8.630;2023-04-22T06:57:49;100643.53;;;14.16;100.00
22872;BME280;11603;44.910;8.630;2023-04-22T07:00:16;100643.41;;;14.18;100.00
22872;BME280;11603;44.910;8.630;2023-04-22T07:02:41;100641.06;;;14.37;100.00
22872;BME280;11603;44.910;8.630;2023-04-22T07:05:07;100645.66;;;14.35;100.00
22872;BME280;11603;44.910;8.630;2023-04-22T07:07:33;100632.91;;;14.50;100.00
22872;BME280;11603;44.910;8.630;2023-04-22T07:09:58;100641.81;;;14.50;100.00
22872;BME280;11603;44.910;8.630;2023-04-22T07:12:29;100640.97;;;14.61;100.00
22872;BME280;11603;44.910;8.630;2023-04-22T07:14:54;100629.59;;;14.57;100.00
22872;BME280;11603;44.910;8.630;2023-04-22T07:17:20;100626.16;;;14.66;100.00
22872;BME280;11603;44.910;8.630;2023-04-22T07:19:47;100625.97;;;14.80;100.00
22872;BME280;11603;44.910;8.630;2023-04-22T07:22:13;100625.09;;;15.02;100.00
22872;BME280;11603;44.910;8.630;2023-04-22T07:24:38;100614.56;;;15.10;100.00
22872;BME280;11603;44.910;8.630;2023-04-22T07:27:05;100615.53;;;15.09;100.00
22872;BME280;11603;44.910;8.630;2023-04-22T07:29:31;100612.63;;;15.12;100.00
22872;BME280;11603;44.910;8.630;2023-04-22T07:31:56;100610.91;;;15.22;100.00
22872;BME280;11603;44.910;8.630;2023-04-22T07:34:22;100607.69;;;15.28;100.00
22872;BME280;11603;44.910;8.630;2023-04-22T07:36:49;100603.16;;;15.29;100.00
22872;BME280;11603;44.910;8.630;2023-04-22T07:39:16;100599.66;;;15.49;100.00
22872;BME280;11603;44.910;8.630;2023-04-22T07:41:42;100601.47;;;15.71;100.00
22872;BME280;11603;44.910;8.630;2023-04-22T07:44:07;100604.84;;;15.63;100.00
22872;BME280;11603;44.910;8.630;2023-04-22T07:46:34;100600.06;;;15.45;100.00
22872;BME280;11603;44.910;8.630;2023-04-22T07:49:00;100601.00;;;15.66;100.00
22872;BME280;11603;44.910;8.630;2023-04-22T07:51:25;100596.81;;;15.73;100.00
22872;BME280;11603;44.910;8.630;2023-04-22T07:53:51;100590.31;;;15.76;100.00
22872;BME280;11603;44.910;8.630;2023-04-22T07:56:16;100592.25;;;15.85;100.00
22872;BME280;11603;44.910;8.630;2023-04-22T07:58:42;100591.03;;;15.78;100.00
22872;BME280;11603;44.910;8.630;2023-04-22T08:01:07;100586.25;;;15.81;100.00
22872;BME280;11603;44.910;8.630;2023-04-22T08:03:33;100591.13;;;15.87;100.00
22872;BME280;11603;44.910;8.630;2023-04-22T08:05:58;100586.19;;;15.92;100.00
22872;BME280;11603;44.910;8.630;2023-04-22T08:08:24;100581.72;;;16.02;100.00
22872;BME280;11603;44.910;8.630;2023-04-22T08:10:50;100586.41;;;16.00;100.00
22872;BME280;11603;44.910;8.630;2023-04-22T08:13:15;100594.97;;;16.05;100.00
22872;BME280;11603;44.910;8.630;2023-04-22T08:15:41;100596.47;;;15.98;100.00
22872;BME280;11603;44.910;8.630;2023-04-22T08:18:06;100586.16;;;16.03;100.00
22872;BME280;11603;44.910;8.630;2023-04-22T08:20:32;100591.88;;;15.89;100.00
22872;BME280;11603;44.910;8.630;2023-04-22T08:22:57;100587.59;;;16.07;100.00
22872;BME280;11603;44.910;8.630;2023-04-22T08:25:25;100591.50;;;16.35;100.00
22872;BME280;11603;44.910;8.630;2023-04-22T08:27:51;100581.88;;;16.42;100.00
22872;BME280;11603;44.910;8.630;2023-04-22T08:30:17;100587.53;;;16.39;100.00
22872;BME280;11603;44.910;8.630;2023-04-22T08:32:43;100573.72;;;16.53;100.00
22872;BME280;11603;44.910;8.630;2023-04-22T08:35:08;100590.53;;;16.87;100.00
22872;BME280;11603;44.910;8.630;2023-04-22T08:37:34;100586.34;;;17.04;100.00
22872;BME280;11603;44.910;8.630;2023-04-22T08:40:00;100581.63;;;17.06;100.00
22872;BME280;11603;44.910;8.630;2023-04-22T08:42:26;100580.06;;;17.04;100.00
22872;BME280;11603;44.910;8.630;2023-04-22T08:44:53;100592.97;;;17.30;100.00
22872;BME280;11603;44.910;8.630;2023-04-22T08:47:20;100591.69;;;17.34;100.00
22872;BME280;11603;44.910;8.630;2023-04-22T08:49:46;100583.59;;;17.54;100.00
22872;BME280;11603;44.910;8.630;2023-04-22T08:52:11;100585.41;;;17.74;100.00
22872;BME280;11603;44.910;8.630;2023-04-22T08:54:40;100580.41;;;17.89;100.00
22872;BME280;11603;44.910;8.630;2023-04-22T08:57:06;100574.28;;;17.67;100.00
22872;BME280;11603;44.910;8.630;2023-04-22T08:59:33;100578.81;;;17.96;100.00
22872;BME280;11603;44.910;8.630;2023-04-22T09:02:00;100574.94;;;18.27;100.00
22872;BME280;11603;44.910;8.630;2023-04-22T09:04:28;100561.09;;;18.49;100.00
22872;BME280;11603;44.910;8.630;2023-04-22T09:06:54;100566.09;;;18.54;100.00
22872;BME280;11603;44.910;8.630;2023-04-22T09:09:20;100565.97;;;18.55;100.00
22872;BME280;11603;44.910;8.630;2023-04-22T09:11:46;100567.81;;;18.55;100.00
22872;BME280;11603;44.910;8.630;2023-04-22T09:14:11;100565.53;;;18.41;100.00
22872;BME280;11603;44.910;8.630;2023-04-22T09:16:41;100566.81;;;18.46;100.00
22872;BME280;11603;44.910;8.630;2023-04-22T09:19:11;100558.13;;;18.33;100.00
22872;BME280;11603;44.910;8.630;2023-04-22T09:21:38;100566.84;;;18.37;100.00
22872;BME280;11603;44.910;8.630;2023-04-22T09:24:09;100556.72;;;18.29;100.00
22872;BME280;11603;44.910;8.630;2023-04-22T09:26:41;100560.84;;;18.33;100.00
22872;BME280;11603;44.910;8.630;2023-04-22T09:29:08;100556.75;;;18.10;100.00
22872;BME280;11603;44.910;8.630;2023-04-22T09:31:37;100564.31;;;18.16;100.00
22872;BME280;11603;44.910;8.630;2023-04-22T09:34:03;100556.56;;;18.40;100.00
22872;BME280;11603;44.910;8.630;2023-04-22T09:36:30;100556.66;;;18.58;100.00
22872;BME280;11603;44.910;8.630;2023-04-22T09:39:01;100550.88;;;18.80;100.00
22872;BME280;11603;44.910;8.630;2023-04-22T09:41:33;100540.13;;;18.98;100.00
22872;BME280;11603;44.910;8.630;2023-04-22T09:44:00;100544.03;;;19.13;100.00
22872;BME280;11603;44.910;8.630;2023-04-22T09:46:27;100536.22;;;19.28;100.00
22872;BME280;11603;44.910;8.630;2023-04-22T09:48:57;100531.44;;;19.39;100.00
22872;BME280;11603;44.910;8.630;2023-04-22T09:51:23;100542.25;;;19.49;100.00
22872;BME280;11603;44.910;8.630;2023-04-22T09:54:00;100545.59;;;19.61;100.00
22872;BME280;11603;44.910;8.630;2023-04-22T09:56:47;100532.44;;;19.66;100.00
22872;BME280;11603;44.910;8.630;2023-04-22T09:59:20;100532.66;;;19.27;100.00
22872;BME280;11603;44.910;8.630;2023-04-22T10:01:47;100530.06;;;19.35;100.00
22872;BME280;11603;44.910;8.630;2023-04-22T10:04:13;100527.69;;;19.23;100.00
22872;BME280;11603;44.910;8.630;2023-04-22T10:06:43;100532.72;;;19.45;100.00
22872;BME280;11603;44.910;8.630;2023-04-22T10:09:08;100524.44;;;19.64;100.00
22872;BME280;11603;44.910;8.630;2023-04-22T10:11:35;100519.31;;;19.79;100.00
22872;BME280;11603;44.910;8.630;2023-04-22T10:14:01;100520.00;;;19.81;100.00
22872;BME280;11603;44.910;8.630;2023-04-22T10:16:30;100521.06;;;20.06;100.00
22872;BME280;11603;44.910;8.630;2023-04-22T10:18:57;100514.78;;;20.05;100.00
22872;BME280;11603;44.910;8.630;2023-04-22T10:21:24;100512.97;;;20.32;100.00
22872;BME280;11603;44.910;8.630;2023-04-22T10:23:51;100507.00;;;20.54;100.00
22872;BME280;11603;44.910;8.630;2023-04-22T10:26:39;100509.06;;;20.60;100.00
22872;BME280;11603;44.910;8.630;2023-04-22T10:29:07;100499.91;;;20.61;100.00
22872;BME280;11603;44.910;8.630;2023-04-22T10:31:36;100498.50;;;20.57;99.39
22872;BME280;11603;44.910;8.630;2023-04-22T10:34:11;100494.09;;;20.04;100.00
22872;BME280;11603;44.910;8.630;2023-04-22T10:37:00;100480.97;;;20.25;100.00
22872;BME280;11603;44.910;8.630;2023-04-22T10:39:29;100484.31;;;20.37;99.84
22872;BME280;11603;44.910;8.630;2023-04-22T10:42:12;100486.97;;;20.63;99.26
22872;BME280;11603;44.910;8.630;2023-04-22T10:44:52;100485.63;;;20.59;100.00
22872;BME280;11603;44.910;8.630;2023-04-22T10:49:51;100477.19;;;20.78;97.48
22872;BME280;11603;44.910;8.630;2023-04-22T10:52:27;100476.72;;;20.49;100.00
22872;BME280;11603;44.910;8.630;2023-04-22T10:57:19;100476.72;;;20.83;96.26
22872;BME280;11603;44.910;8.630;2023-04-22T10:59:51;100473.56;;;20.61;98.17
22872;BME280;11603;44.910;8.630;2023-04-22T11:02:18;100469.00;;;20.62;97.58
22872;BME280;11603;44.910;8.630;2023-04-22T11:04:44;100461.44;;;20.90;96.23
22872;BME280;11603;44.910;8.630;2023-04-22T11:09:57;100458.19;;;21.36;92.73
22872;BME280;11603;44.910;8.630;2023-04-22T11:15:15;100441.72;;;21.54;89.31
22872;BME280;11603;44.910;8.630;2023-04-22T11:17:43;100453.97;;;21.58;88.69
22872;BME280;11603;44.910;8.630;2023-04-22T11:20:10;100451.06;;;21.51;88.47
22872;BME280;11603;44.910;8.630;2023-04-22T11:22:40;100445.47;;;21.69;87.64
22872;BME280;11603;44.910;8.630;2023-04-22T11:25:06;100441.03;;;21.92;86.45
22872;BME280;11603;44.910;8.630;2023-04-22T11:27:34;100442.41;;;22.13;83.77
22872;BME280;11603;44.910;8.630;2023-04-22T11:32:39;100438.47;;;22.23;81.98
22872;BME280;11603;44.910;8.630;2023-04-22T11:35:11;100426.34;;;22.26;82.71
22872;BME280;11603;44.910;8.630;2023-04-22T11:37:51;100427.31;;;22.41;83.54
22872;BME280;11603;44.910;8.630;2023-04-22T11:40:19;100431.06;;;22.40;82.33
22872;BME280;11603;44.910;8.630;2023-04-22T11:42:46;100421.41;;;22.29;81.82
22872;BME280;11603;44.910;8.630;2023-04-22T11:45:12;100416.78;;;22.30;82.08
22872;BME280;11603;44.910;8.630;2023-04-22T11:47:40;100418.09;;;22.50;79.18
22872;BME280;11603;44.910;8.630;2023-04-22T11:50:08;100405.50;;;22.49;77.59
22872;BME280;11603;44.910;8.630;2023-04-22T11:52:53;100404.25;;;22.60;75.83
22872;BME280;11603;44.910;8.630;2023-04-22T11:55:29;100393.84;;;22.63;74.20
22872;BME280;11603;44.910;8.630;2023-04-22T12:00:29;100394.16;;;22.68;71.59
22872;BME280;11603;44.910;8.630;2023-04-22T12:03:00;100394.38;;;22.51;73.62
22872;BME280;11603;44.910;8.630;2023-04-22T12:05:38;100398.09;;;22.66;73.42
22872;BME280;11603;44.910;8.630;2023-04-22T12:08:16;100389.41;;;22.62;68.69
22872;BME280;11603;44.910;8.630;2023-04-22T12:10:45;100392.94;;;22.32;70.20
22872;BME280;11603;44.910;8.630;2023-04-22T12:13:22;100392.94;;;22.32;73.47
22872;BME280;11603;44.910;8.630;2023-04-22T12:15:59;100389.38;;;22.70;72.02
22872;BME280;11603;44.910;8.630;2023-04-22T12:18:33;100386.91;;;22.53;72.20
22872;BME280;11603;44.910;8.630;2023-04-22T12:23:43;100385.28;;;22.66;70.26
22872;BME280;11603;44.910;8.630;2023-04-22T12:26:09;100380.47;;;22.85;69.35
22872;BME280;11603;44.910;8.630;2023-04-22T12:28:39;100374.50;;;23.12;68.07
22872;BME280;11603;44.910;8.630;2023-04-22T12:31:06;100368.00;;;22.82;65.72
22872;BME280;11603;44.910;8.630;2023-04-22T12:33:34;100378.63;;;22.69;67.21
22872;BME280;11603;44.910;8.630;2023-04-22T12:36:00;100366.72;;;23.01;65.29
22872;BME280;11603;44.910;8.630;2023-04-22T12:38:25;100369.09;;;23.27;65.35
22872;BME280;11603;44.910;8.630;2023-04-22T12:40:51;100365.44;;;23.57;64.81
22872;BME280;11603;44.910;8.630;2023-04-22T12:43:17;100369.69;;;23.37;65.22
22872;BME280;11603;44.910;8.630;2023-04-22T12:45:43;100365.63;;;23.55;63.96
22872;BME280;11603;44.910;8.630;2023-04-22T12:48:08;100357.19;;;23.19;64.02
22872;BME280;11603;44.910;8.630;2023-04-22T12:50:34;100347.72;;;22.85;66.25
22872;BME280;11603;44.910;8.630;2023-04-22T12:52:59;100358.53;;;22.70;67.26
22872;BME280;11603;44.910;8.630;2023-04-22T12:55:25;100361.53;;;22.83;67.35
22872;BME280;11603;44.910;8.630;2023-04-22T12:57:51;100356.94;;;22.84;67.64
22872;BME280;11603;44.910;8.630;2023-04-22T13:00:17;100348.81;;;22.67;67.86
22872;BME280;11603;44.910;8.630;2023-04-22T13:02:45;100348.03;;;22.51;67.74